sensor_id;sensor_type;location;lat;lon;timestamp;pressure;altitude;pressure_sealevel;temperature;humidity
27643;BME280;15053;48.618;10.024;2023-09-12T00:00:21;94095.56;;;19.21;77.96
27643;BME280;15053;48.618;10.024;2023-09-12T00:02:50;94097.09;;;19.22;77.74
27643;BME280;15053;48.618;10.024;2023-09-12T00:05:17;94086.97;;;19.24;77.72
27643;BME280;15053;48.618;10.024;2023-09-12T00:07:43;94092.66;;;19.26;77.45
27643;BME280;15053;48.618;10.024;2023-09-12T00:10:10;94090.44;;;19.28;77.47
27643;BME280;15053;48.618;10.024;2023-09-12T00:12:36;94082.84;;;19.26;77.60
27643;BME280;15053;48.618;10.024;2023-09-12T00:15:03;94072.16;;;19.19;77.37
27643;BME280;15053;48.618;10.024;2023-09-12T00:17:31;94078.88;;;19.17;77.44
27643;BME280;15053;48.618;10.024;2023-09-12T00:19:57;94075.81;;;19.15;77.58
27643;BME280;15053;48.618;10.024;2023-09-12T00:22:24;94065.69;;;19.17;77.54
27643;BME280;15053;48.618;10.024;2023-09-12T00:24:50;94059.38;;;19.21;77.50
27643;BME280;15053;48.618;10.024;2023-09-12T00:27:17;94061.72;;;19.26;77.42
27643;BME280;15053;48.618;10.024;2023-09-12T00:29:44;94058.00;;;19.27;77.20
27643;BME280;15053;48.618;10.024;2023-09-12T00:32:12;94052.63;;;19.24;76.98
27643;BME280;15053;48.618;10.024;2023-09-12T00:34:38;94048.72;;;19.18;77.25
27643;BME280;15053;48.618;10.024;2023-09-12T00:37:05;94044.81;;;19.12;77.19
27643;BME280;15053;48.618;10.024;2023-09-12T00:39:32;94046.72;;;19.11;77.16
27643;BME280;15053;48.618;10.024;2023-09-12T00:41:58;94045.59;;;19.12;77.19
27643;BME280;15053;48.618;10.024;2023-09-12T00:44:25;94040.97;;;19.09;77.19
27643;BME280;15053;48.618;10.024;2023-09-12T00:46:52;94039.81;;;19.07;77.31
27643;BME280;15053;48.618;10.024;2023-09-12T00:49:21;94040.44;;;19.00;77.09
27643;BME280;15053;48.618;10.024;2023-09-12T00:51:50;94037.44;;;19.02;77.17
27643;BME280;15053;48.618;10.024;2023-09-12T00:54:17;94039.66;;;19.00;77.08
27643;BME280;15053;48.618;10.024;2023-09-12T00:56:44;94030.88;;;18.96;77.41
27643;BME280;15053;48.618;10.024;2023-09-12T00:59:12;94027.84;;;18.94;77.63
27643;BME280;15053;48.618;10.024;2023-09-12T01:01:39;94031.56;;;18.93;77.58
27643;BME280;15053;48.618;10.024;2023-09-12T01:04:06;94024.50;;;18.97;77.13
27643;BME280;15053;48.618;10.024;2023-09-12T01:06:45;94021.78;;;18.93;77.10
27643;BME280;15053;48.618;10.024;2023-09-12T01:09:13;94030.81;;;18.92;77.37
27643;BME280;15053;48.618;10.024;2023-09-12T01:11:41;94018.66;;;18.88;77.13
27643;BME280;15053;48.618;10.024;2023-09-12T01:14:07;94028.78;;;18.85;77.00
27643;BME280;15053;48.618;10.024;2023-09-12T01:16:34;94027.88;;;18.78;77.14
27643;BME280;15053;48.618;10.024;2023-09-12T01:19:01;94039.03;;;18.71;77.55
27643;BME280;15053;48.618;10.024;2023-09-12T01:22:11;94034.69;;;18.63;77.59
27643;BME280;15053;48.618;10.024;2023-09-12T01:27:19;94040.41;;;18.50;77.78
27643;BME280;15053;48.618;10.024;2023-09-12T01:29:51;94034.34;;;18.49;77.78
27643;BME280;15053;48.618;10.024;2023-09-12T01:32:20;94041.59;;;18.52;77.90
27643;BME280;15053;48.618;10.024;2023-09-12T01:34:47;94044.13;;;18.49;78.15
27643;BME280;15053;48.618;10.024;2023-09-12T01:37:14;94037.06;;;18.37;78.12
27643;BME280;15053;48.618;10.024;2023-09-12T01:39:41;94040.28;;;18.31;78.48
27643;BME280;15053;48.618;10.024;2023-09-12T01:42:14;94040.28;;;18.31;78.65
27643;BME280;15053;48.618;10.024;2023-09-12T01:44:45;94036.47;;;18.28;79.00
27643;BME280;15053;48.618;10.024;2023-09-12T01:47:13;94040.13;;;18.23;79.12
27643;BME280;15053;48.618;10.024;2023-09-12T01:49:44;94039.00;;;18.24;79.33
27643;BME280;15053;48.618;10.024;2023-09-12T01:52:12;94037.38;;;18.20;79.32
27643;BME280;15053;48.618;10.024;2023-09-12T01:54:40;94029.63;;;18.11;79.62
27643;BME280;15053;48.618;10.024;2023-09-12T01:57:08;94049.47;;;18.21;79.97
27643;BME280;15053;48.618;10.024;2023-09-12T01:59:36;94049.47;;;18.21;79.82
27643;BME280;15053;48.618;10.024;2023-09-12T02:02:03;94051.00;;;18.22;79.79
27643;BME280;15053;48.618;10.024;2023-09-12T02:04:30;94043.84;;;18.22;79.85
27643;BME280;15053;48.618;10.024;2023-09-12T02:06:56;94049.53;;;18.24;79.46
27643;BME280;15053;48.618;10.024;2023-09-12T02:09:25;94051.75;;;18.22;79.50
27643;BME280;15053;48.618;10.024;2023-09-12T02:11:51;94056.25;;;18.22;79.28
27643;BME280;15053;48.618;10.024;2023-09-12T02:14:18;94050.91;;;18.18;79.39
27643;BME280;15053;48.618;10.024;2023-09-12T02:16:44;94050.16;;;18.18;79.33
27643;BME280;15053;48.618;10.024;2023-09-12T02:19:11;94047.16;;;18.19;79.13
27643;BME280;15053;48.618;10.024;2023-09-12T02:21:38;94049.47;;;18.21;78.99
27643;BME280;15053;48.618;10.024;2023-09-12T02:24:05;94056.69;;;18.24;78.96
27643;BME280;15053;48.618;10.024;2023-09-12T02:26:32;94053.72;;;18.25;78.94
27643;BME280;15053;48.618;10.024;2023-09-12T02:29:03;94051.84;;;18.26;78.60
27643;BME280;15053;48.618;10.024;2023-09-12T02:31:32;94045.81;;;18.25;78.66
27643;BME280;15053;48.618;10.024;2023-09-12T02:33:58;94054.03;;;18.24;78.42
27643;BME280;15053;48.618;10.024;2023-09-12T02:36:25;94046.84;;;18.21;78.28
27643;BME280;15053;48.618;10.024;2023-09-12T02:38:52;94053.63;;;18.22;78.22
27643;BME280;15053;48.618;10.024;2023-09-12T02:41:18;94051.34;;;18.20;78.26
27643;BME280;15053;48.618;10.024;2023-09-12T02:43:45;94042.66;;;18.20;78.20
27643;BME280;15053;48.618;10.024;2023-09-12T02:46:12;94044.22;;;18.21;78.23
27643;BME280;15053;48.618;10.024;2023-09-12T02:48:38;94043.09;;;18.22;78.44
27643;BME280;15053;48.618;10.024;2023-09-12T02:51:06;94031.09;;;18.24;78.39
27643;BME280;15053;48.618;10.024;2023-09-12T02:53:33;94036.72;;;18.23;78.24
27643;BME280;15053;48.618;10.024;2023-09-12T02:55:59;94031.34;;;18.19;78.16
27643;BME280;15053;48.618;10.024;2023-09-12T02:58:26;94040.69;;;18.17;77.93
27643;BME280;15053;48.618;10.024;2023-09-12T03:00:53;94042.47;;;18.13;77.79
27643;BME280;15053;48.618;10.024;2023-09-12T03:03:21;94034.81;;;18.08;78.19
27643;BME280;15053;48.618;10.024;2023-09-12T03:05:57;94035.41;;;18.01;78.21
27643;BME280;15053;48.618;10.024;2023-09-12T03:08:23;94040.16;;;17.96;78.39
27643;BME280;15053;48.618;10.024;2023-09-12T03:10:57;94034.91;;;17.96;78.83
27643;BME280;15053;48.618;10.024;2023-09-12T03:13:24;94037.59;;;17.99;78.67
27643;BME280;15053;48.618;10.024;2023-09-12T03:15:52;94038.06;;;18.01;78.63
27643;BME280;15053;48.618;10.024;2023-09-12T03:18:19;94043.75;;;18.03;78.40
27643;BME280;15053;48.618;10.024;2023-09-12T03:20:46;94034.66;;;18.01;78.50
27643;BME280;15053;48.618;10.024;2023-09-12T03:23:13;94027.84;;;18.00;78.22
27643;BME280;15053;48.618;10.024;2023-09-12T03:25:39;94024.88;;;18.01;78.27
27643;BME280;15053;48.618;10.024;2023-09-12T03:28:06;94022.66;;;18.03;78.19
27643;BME280;15053;48.618;10.024;2023-09-12T03:30:35;94028.81;;;18.07;77.86
27643;BME280;15053;48.618;10.024;2023-09-12T03:33:03;94019.78;;;18.08;77.87
27643;BME280;15053;48.618;10.024;2023-09-12T03:35:31;94015.78;;;18.14;77.74
27643;BME280;15053;48.618;10.024;2023-09-12T03:37:58;94017.41;;;18.19;77.25
27643;BME280;15053;48.618;10.024;2023-09-12T03:40:25;94013.00;;;18.23;76.84
27643;BME280;15053;48.618;10.024;2023-09-12T03:42:52;94009.69;;;18.26;76.67
27643;BME280;15053;48.618;10.024;2023-09-12T03:45:19;94015.78;;;18.30;76.59
27643;BME280;15053;48.618;10.024;2023-09-12T03:47:45;94013.59;;;18.32;76.28
27643;BME280;15053;48.618;10.024;2023-09-12T03:50:14;94010.97;;;18.32;76.11
27643;BME280;15053;48.618;10.024;2023-09-12T03:52:41;94012.16;;;18.35;76.24
27643;BME280;15053;48.618;10.024;2023-09-12T03:55:08;94010.25;;;18.35;75.71
27643;BME280;15053;48.618;10.024;2023-09-12T03:57:35;94014.34;;;18.33;76.08
27643;BME280;15053;48.618;10.024;2023-09-12T04:00:01;94011.88;;;18.24;76.00
27643;BME280;15053;48.618;10.024;2023-09-12T04:02:39;94010.59;;;18.18;76.16
27643;BME280;15053;48.618;10.024;2023-09-12T04:05:06;94007.88;;;18.14;76.38
27643;BME280;15053;48.618;10.024;2023-09-12T04:07:33;94011.53;;;18.10;76.12
27643;BME280;15053;48.618;10.024;2023-09-12T04:09:59;94022.41;;;18.08;76.33
27643;BME280;15053;48.618;10.024;2023-09-12T04:12:26;94017.28;;;18.00;76.29
27643;BME280;15053;48.618;10.024;2023-09-12T04:14:52;94016.00;;;17.94;76.70
27643;BME280;15053;48.618;10.024;2023-09-12T04:17:19;94016.25;;;17.89;76.72
27643;BME280;15053;48.618;10.024;2023-09-12T04:19:46;94015.84;;;17.87;76.87
27643;BME280;15053;48.618;10.024;2023-09-12T04:22:13;94011.91;;;17.81;76.79
27643;BME280;15053;48.618;10.024;2023-09-12T04:24:39;94016.75;;;17.79;77.00
27643;BME280;15053;48.618;10.024;2023-09-12T04:27:06;94020.94;;;17.80;77.31
27643;BME280;15053;48.618;10.024;2023-09-12T04:29:33;94013.78;;;17.80;77.49
27643;BME280;15053;48.618;10.024;2023-09-12T04:32:04;94023.13;;;17.78;77.70
27643;BME280;15053;48.618;10.024;2023-09-12T04:34:32;94018.53;;;17.75;77.77
27643;BME280;15053;48.618;10.024;2023-09-12T04:36:59;94020.41;;;17.74;77.79
27643;BME280;15053;48.618;10.024;2023-09-12T04:39:25;94026.41;;;17.75;77.65
27643;BME280;15053;48.618;10.024;2023-09-12T04:41:52;94027.19;;;17.75;77.93
27643;BME280;15053;48.618;10.024;2023-09-12T04:44:19;94034.69;;;17.73;77.88
27643;BME280;15053;48.618;10.024;2023-09-12T04:46:45;94030.06;;;17.70;77.87
27643;BME280;15053;48.618;10.024;2023-09-12T04:49:12;94036.78;;;17.67;77.88
27643;BME280;15053;48.618;10.024;2023-09-12T04:51:39;94030.22;;;17.61;78.07
27643;BME280;15053;48.618;10.024;2023-09-12T04:54:06;94039.84;;;17.69;78.14
27643;BME280;15053;48.618;10.024;2023-09-12T04:56:33;94035.56;;;17.77;77.92
27643;BME280;15053;48.618;10.024;2023-09-12T04:58:59;94028.91;;;17.83;77.85
27643;BME280;15053;48.618;10.024;2023-09-12T05:01:26;94032.94;;;17.93;78.03
27643;BME280;15053;48.618;10.024;2023-09-12T05:03:53;94036.19;;;18.02;78.16
27643;BME280;15053;48.618;10.024;2023-09-12T05:06:19;94034.91;;;18.11;78.11
27643;BME280;15053;48.618;10.024;2023-09-12T05:08:46;94037.81;;;18.22;78.00
27643;BME280;15053;48.618;10.024;2023-09-12T05:11:13;94035.78;;;18.31;77.95
27643;BME280;15053;48.618;10.024;2023-09-12T05:13:39;94024.38;;;18.43;78.03
27643;BME280;15053;48.618;10.024;2023-09-12T05:16:07;94029.53;;;18.51;77.69
27643;BME280;15053;48.618;10.024;2023-09-12T05:18:34;94032.16;;;18.51;77.27
27643;BME280;15053;48.618;10.024;2023-09-12T05:21:00;94030.94;;;18.49;77.58
27643;BME280;15053;48.618;10.024;2023-09-12T05:23:27;94036.41;;;18.56;77.52
27643;BME280;15053;48.618;10.024;2023-09-12T05:25:53;94031.72;;;18.65;77.58
27643;BME280;15053;48.618;10.024;2023-09-12T05:28:20;94035.78;;;18.78;77.59
27643;BME280;15053;48.618;10.024;2023-09-12T05:30:49;94033.03;;;18.90;77.68
27643;BME280;15053;48.618;10.024;2023-09-12T05:33:16;94024.50;;;18.97;77.36
27643;BME280;15053;48.618;10.024;2023-09-12T05:35:43;94028.97;;;19.12;77.33
27643;BME280;15053;48.618;10.024;2023-09-12T05:38:11;94035.97;;;19.20;77.13
27643;BME280;15053;48.618;10.024;2023-09-12T05:40:37;94041.09;;;19.32;76.85
27643;BME280;15053;48.618;10.024;2023-09-12T05:43:04;94031.13;;;19.41;76.69
27643;BME280;15053;48.618;10.024;2023-09-12T05:45:30;94031.69;;;19.50;76.79
27643;BME280;15053;48.618;10.024;2023-09-12T05:47:59;94029.19;;;19.57;76.01
27643;BME280;15053;48.618;10.024;2023-09-12T05:50:27;94032.44;;;19.70;76.15
27643;BME280;15053;48.618;10.024;2023-09-12T05:52:54;94029.59;;;19.78;75.63
27643;BME280;15053;48.618;10.024;2023-09-12T05:55:21;94037.66;;;19.85;75.64
27643;BME280;15053;48.618;10.024;2023-09-12T05:57:48;94033.59;;;19.91;75.21
27643;BME280;15053;48.618;10.024;2023-09-12T06:00:20;94032.97;;;19.98;75.30
27643;BME280;15053;48.618;10.024;2023-09-12T06:02:47;94032.28;;;20.01;75.27
27643;BME280;15053;48.618;10.024;2023-09-12T06:05:15;94036.22;;;20.11;74.83
27643;BME280;15053;48.618;10.024;2023-09-12T06:07:42;94036.75;;;20.20;75.14
27643;BME280;15053;48.618;10.024;2023-09-12T06:10:09;94038.44;;;20.28;74.66
27643;BME280;15053;48.618;10.024;2023-09-12T06:12:36;94041.25;;;20.38;74.08
27643;BME280;15053;48.618;10.024;2023-09-12T06:15:03;94046.66;;;20.45;73.77
27643;BME280;15053;48.618;10.024;2023-09-12T06:17:31;94037.66;;;20.50;73.73
27643;BME280;15053;48.618;10.024;2023-09-12T06:19:58;94041.53;;;20.56;73.37
27643;BME280;15053;48.618;10.024;2023-09-12T06:22:24;94039.44;;;20.65;73.46
27643;BME280;15053;48.618;10.024;2023-09-12T06:24:51;94044.13;;;20.75;73.06
27643;BME280;15053;48.618;10.024;2023-09-12T06:27:18;94038.50;;;20.80;72.96
27643;BME280;15053;48.618;10.024;2023-09-12T06:29:48;94035.97;;;20.87;72.55
27643;BME280;15053;48.618;10.024;2023-09-12T06:32:15;94050.84;;;20.95;72.29
27643;BME280;15053;48.618;10.024;2023-09-12T06:34:42;94053.66;;;21.06;72.10
27643;BME280;15053;48.618;10.024;2023-09-12T06:37:10;94052.25;;;21.12;71.90
27643;BME280;15053;48.618;10.024;2023-09-12T06:39:37;94055.41;;;21.21;71.82
27643;BME280;15053;48.618;10.024;2023-09-12T06:42:04;94059.72;;;21.33;71.71
27643;BME280;15053;48.618;10.024;2023-09-12T06:44:31;94054.53;;;21.40;71.92
27643;BME280;15053;48.618;10.024;2023-09-12T06:46:58;94062.56;;;21.47;71.49
27643;BME280;15053;48.618;10.024;2023-09-12T06:49:24;94060.41;;;21.56;71.52
27643;BME280;15053;48.618;10.024;2023-09-12T06:51:50;94065.06;;;21.66;71.34
27643;BME280;15053;48.618;10.024;2023-09-12T06:54:17;94060.72;;;21.81;71.25
27643;BME280;15053;48.618;10.024;2023-09-12T06:56:44;94061.63;;;21.95;71.08
27643;BME280;15053;48.618;10.024;2023-09-12T06:59:10;94065.94;;;22.07;70.68
27643;BME280;15053;48.618;10.024;2023-09-12T07:01:37;94061.91;;;22.20;70.46
27643;BME280;15053;48.618;10.024;2023-09-12T07:04:04;94063.16;;;22.29;70.27
27643;BME280;15053;48.618;10.024;2023-09-12T07:06:31;94056.44;;;22.43;69.92
27643;BME280;15053;48.618;10.024;2023-09-12T07:08:59;94064.53;;;22.57;69.79
27643;BME280;15053;48.618;10.024;2023-09-12T07:11:26;94059.75;;;22.73;68.96
27643;BME280;15053;48.618;10.024;2023-09-12T07:13:52;94057.97;;;22.87;68.45
27643;BME280;15053;48.618;10.024;2023-09-12T07:16:19;94063.41;;;23.02;67.55
27643;BME280;15053;48.618;10.024;2023-09-12T07:18:49;94057.44;;;23.22;66.97
27643;BME280;15053;48.618;10.024;2023-09-12T07:21:17;94062.16;;;23.43;66.59
27643;BME280;15053;48.618;10.024;2023-09-12T07:23:44;94061.88;;;23.62;66.00
27643;BME280;15053;48.618;10.024;2023-09-12T07:26:14;94062.28;;;23.75;65.31
27643;BME280;15053;48.618;10.024;2023-09-12T07:28:41;94063.88;;;23.90;64.30
27643;BME280;15053;48.618;10.024;2023-09-12T07:31:07;94068.44;;;23.93;63.78
27643;BME280;15053;48.618;10.024;2023-09-12T07:33:34;94064.28;;;23.92;63.19
27643;BME280;15053;48.618;10.024;2023-09-12T07:36:01;94069.22;;;23.97;63.50
27643;BME280;15053;48.618;10.024;2023-09-12T07:38:29;94068.91;;;24.09;63.89
27643;BME280;15053;48.618;10.024;2023-09-12T07:40:58;94064.75;;;24.19;64.37
27643;BME280;15053;48.618;10.024;2023-09-12T07:43:27;94066.69;;;24.25;64.32
27643;BME280;15053;48.618;10.024;2023-09-12T07:45:57;94060.94;;;24.23;63.87
27643;BME280;15053;48.618;10.024;2023-09-12T07:48:24;94068.56;;;24.21;64.44
27643;BME280;15053;48.618;10.024;2023-09-12T07:50:51;94076.94;;;24.20;64.34
27643;BME280;15053;48.618;10.024;2023-09-12T07:53:18;94076.91;;;24.16;64.37
27643;BME280;15053;48.618;10.024;2023-09-12T07:55:45;94079.94;;;24.15;63.87
27643;BME280;15053;48.618;10.024;2023-09-12T07:58:14;94079.19;;;24.14;64.29
27643;BME280;15053;48.618;10.024;2023-09-12T08:00:41;94087.59;;;24.27;64.64
27643;BME280;15053;48.618;10.024;2023-09-12T08:03:08;94094.06;;;24.29;64.76
27643;BME280;15053;48.618;10.024;2023-09-12T08:05:34;94096.72;;;24.33;65.28
27643;BME280;15053;48.618;10.024;2023-09-12T08:08:02;94095.59;;;24.30;65.28
27643;BME280;15053;48.618;10.024;2023-09-12T08:10:28;94092.16;;;24.30;65.63
27643;BME280;15053;48.618;10.024;2023-09-12T08:12:55;94096.34;;;24.34;64.82
27643;BME280;15053;48.618;10.024;2023-09-12T08:15:22;94096.00;;;24.46;65.21
27643;BME280;15053;48.618;10.024;2023-09-12T08:17:48;94091.81;;;24.59;65.11
27643;BME280;15053;48.618;10.024;2023-09-12T08:20:19;94091.06;;;24.73;64.45
27643;BME280;15053;48.618;10.024;2023-09-12T08:22:46;94091.13;;;24.84;64.05
27643;BME280;15053;48.618;10.024;2023-09-12T08:25:13;94090.34;;;24.87;63.45
27643;BME280;15053;48.618;10.024;2023-09-12T08:27:41;94092.28;;;24.97;63.44
27643;BME280;15053;48.618;10.024;2023-09-12T08:30:13;94094.53;;;25.09;63.60
27643;BME280;15053;48.618;10.024;2023-09-12T08:32:40;94090.72;;;25.17;63.44
27643;BME280;15053;48.618;10.024;2023-09-12T08:35:13;94097.56;;;25.25;62.53
27643;BME280;15053;48.618;10.024;2023-09-12T08:37:41;94086.91;;;25.32;62.73
27643;BME280;15053;48.618;10.024;2023-09-12T08:40:09;94092.22;;;25.43;62.69
27643;BME280;15053;48.618;10.024;2023-09-12T08:42:42;94086.50;;;25.55;61.94
27643;BME280;15053;48.618;10.024;2023-09-12T08:45:16;94096.75;;;25.70;61.17
27643;BME280;15053;48.618;10.024;2023-09-12T08:47:45;94090.63;;;25.77;60.89
27643;BME280;15053;48.618;10.024;2023-09-12T08:50:14;94089.06;;;25.87;60.79
27643;BME280;15053;48.618;10.024;2023-09-12T08:52:41;94094.00;;;25.95;60.53
27643;BME280;15053;48.618;10.024;2023-09-12T08:55:29;94087.47;;;26.03;59.78
27643;BME280;15053;48.618;10.024;2023-09-12T08:57:59;94085.91;;;26.16;59.45
27643;BME280;15053;48.618;10.024;2023-09-12T09:00:26;94083.97;;;26.27;59.42
27643;BME280;15053;48.618;10.024;2023-09-12T09:02:53;94088.09;;;26.39;59.93
27643;BME280;15053;48.618;10.024;2023-09-12T09:05:21;94089.16;;;26.52;59.08
27643;BME280;15053;48.618;10.024;2023-09-12T09:07:50;94082.59;;;26.60;58.51
27643;BME280;15053;48.618;10.024;2023-09-12T09:10:18;94085.63;;;26.69;58.01
27643;BME280;15053;48.618;10.024;2023-09-12T09:12:54;94091.69;;;26.73;57.60
27643;BME280;15053;48.618;10.024;2023-09-12T09:17:51;94083.22;;;26.89;56.58
27643;BME280;15053;48.618;10.024;2023-09-12T09:22:59;94085.25;;;27.19;56.37
27643;BME280;15053;48.618;10.024;2023-09-12T09:25:26;94083.63;;;27.28;56.02
27643;BME280;15053;48.618;10.024;2023-09-12T09:27:53;94078.59;;;27.34;54.67
27643;BME280;15053;48.618;10.024;2023-09-12T09:30:39;94085.81;;;27.44;53.92
27643;BME280;15053;48.618;10.024;2023-09-12T09:33:06;94082.63;;;27.52;52.33
27643;BME280;15053;48.618;10.024;2023-09-12T09:35:33;94069.59;;;27.58;51.68
27643;BME280;15053;48.618;10.024;2023-09-12T09:38:00;94072.56;;;27.67;50.83
27643;BME280;15053;48.618;10.024;2023-09-12T09:40:26;94073.28;;;27.71;50.51
27643;BME280;15053;48.618;10.024;2023-09-12T09:42:58;94076.22;;;27.80;50.25
27643;BME280;15053;48.618;10.024;2023-09-12T09:45:27;94076.94;;;27.84;49.41
27643;BME280;15053;48.618;10.024;2023-09-12T09:47:57;94076.09;;;27.91;48.65
27643;BME280;15053;48.618;10.024;2023-09-12T09:50:25;94069.78;;;28.08;47.78
27643;BME280;15053;48.618;10.024;2023-09-12T09:52:55;94064.19;;;28.29;47.31
27643;BME280;15053;48.618;10.024;2023-09-12T09:55:23;94068.59;;;28.43;46.05
27643;BME280;15053;48.618;10.024;2023-09-12T09:57:50;94057.00;;;28.49;45.80
27643;BME280;15053;48.618;10.024;2023-09-12T10:00:27;94054.25;;;28.53;46.14
27643;BME280;15053;48.618;10.024;2023-09-12T10:02:55;94057.63;;;28.57;46.32
27643;BME280;15053;48.618;10.024;2023-09-12T10:05:22;94060.25;;;28.64;45.71
27643;BME280;15053;48.618;10.024;2023-09-12T10:07:49;94055.06;;;28.77;45.63
27643;BME280;15053;48.618;10.024;2023-09-12T10:10:18;94057.97;;;28.89;45.44
27643;BME280;15053;48.618;10.024;2023-09-12T10:12:50;94048.50;;;29.04;44.30
27643;BME280;15053;48.618;10.024;2023-09-12T10:15:19;94056.84;;;29.10;44.25
27643;BME280;15053;48.618;10.024;2023-09-12T10:18:14;94045.22;;;29.16;43.95
27643;BME280;15053;48.618;10.024;2023-09-12T10:21:00;94057.25;;;29.32;43.67
27643;BME280;15053;48.618;10.024;2023-09-12T10:23:44;94045.09;;;29.47;43.80
27643;BME280;15053;48.618;10.024;2023-09-12T10:26:13;94040.78;;;29.53;42.54
27643;BME280;15053;48.618;10.024;2023-09-12T10:28:41;94037.72;;;29.51;42.73
27643;BME280;15053;48.618;10.024;2023-09-12T10:31:11;94041.22;;;29.48;43.13
27643;BME280;15053;48.618;10.024;2023-09-12T10:33:38;94031.06;;;29.59;43.60
27643;BME280;15053;48.618;10.024;2023-09-12T10:36:08;94035.00;;;29.74;42.61
27643;BME280;15053;48.618;10.024;2023-09-12T10:38:42;94040.94;;;29.85;42.72
27643;BME280;15053;48.618;10.024;2023-09-12T10:41:14;94040.44;;;29.90;42.64
27643;BME280;15053;48.618;10.024;2023-09-12T10:43:42;94040.38;;;29.94;43.72
27643;BME280;15053;48.618;10.024;2023-09-12T10:46:09;94031.41;;;30.00;42.59
27643;BME280;15053;48.618;10.024;2023-09-12T10:48:37;94034.91;;;29.97;41.70
27643;BME280;15053;48.618;10.024;2023-09-12T10:51:04;94035.63;;;30.01;41.65
27643;BME280;15053;48.618;10.024;2023-09-12T10:53:31;94035.00;;;30.13;41.67
27643;BME280;15053;48.618;10.024;2023-09-12T10:56:18;94034.75;;;30.24;41.56
27643;BME280;15053;48.618;10.024;2023-09-12T11:01:31;94027.84;;;30.59;41.56
27643;BME280;15053;48.618;10.024;2023-09-12T11:03:59;94031.63;;;30.61;41.40
27643;BME280;15053;48.618;10.024;2023-09-12T11:06:49;94022.91;;;30.73;40.17
27643;BME280;15053;48.618;10.024;2023-09-12T11:09:23;94017.59;;;30.86;39.79
27643;BME280;15053;48.618;10.024;2023-09-12T11:12:04;94020.72;;;31.01;40.84
27643;BME280;15053;48.618;10.024;2023-09-12T11:14:34;94014.88;;;31.18;40.59
27643;BME280;15053;48.618;10.024;2023-09-12T11:19:44;94020.38;;;31.60;41.19
27643;BME280;15053;48.618;10.024;2023-09-12T11:22:27;94022.66;;;31.74;39.63
27643;BME280;15053;48.618;10.024;2023-09-12T11:24:55;94025.47;;;31.70;38.25
27643;BME280;15053;48.618;10.024;2023-09-12T11:27:43;94013.75;;;31.77;39.15
27643;BME280;15053;48.618;10.024;2023-09-12T11:30:11;94011.53;;;32.00;39.57
27643;BME280;15053;48.618;10.024;2023-09-12T11:32:38;94010.72;;;32.16;38.50
27643;BME280;15053;48.618;10.024;2023-09-12T11:35:08;94014.94;;;32.30;38.81
27643;BME280;15053;48.618;10.024;2023-09-12T11:37:35;94013.63;;;32.34;37.86
27643;BME280;15053;48.618;10.024;2023-09-12T11:43:00;94009.31;;;32.24;37.21
27643;BME280;15053;48.618;10.024;2023-09-12T11:45:27;94010.94;;;32.34;37.39
27643;BME280;15053;48.618;10.024;2023-09-12T11:47:54;94017.06;;;32.47;36.79
27643;BME280;15053;48.618;10.024;2023-09-12T11:53:07;94008.91;;;32.38;36.26
27643;BME280;15053;48.618;10.024;2023-09-12T11:55:47;94007.06;;;32.35;36.73
27643;BME280;15053;48.618;10.024;2023-09-12T11:58:16;94011.34;;;32.45;36.75
27643;BME280;15053;48.618;10.024;2023-09-12T12:00:47;94013.31;;;32.32;36.18
27643;BME280;15053;48.618;10.024;2023-09-12T12:03:15;94001.75;;;32.32;36.56
27643;BME280;15053;48.618;10.024;2023-09-12T12:05:42;94010.59;;;32.32;37.08
27643;BME280;15053;48.618;10.024;2023-09-12T12:08:10;94002.94;;;32.43;37.17
27643;BME280;15053;48.618;10.024;2023-09-12T12:10:57;93991.31;;;32.46;37.76
27643;BME280;15053;48.618;10.024;2023-09-12T12:13:25;93998.84;;;32.64;36.51
27643;BME280;15053;48.618;10.024;2023-09-12T12:15:54;93998.28;;;32.82;35.26
27643;BME280;15053;48.618;10.024;2023-09-12T12:18:20;93996.13;;;32.89;35.14
27643;BME280;15053;48.618;10.024;2023-09-12T12:20:47;93998.00;;;32.80;35.11
27643;BME280;15053;48.618;10.024;2023-09-12T12:23:14;93994.28;;;32.99;35.30
27643;BME280;15053;48.618;10.024;2023-09-12T12:25:40;93991.00;;;33.16;34.20
27643;BME280;15053;48.618;10.024;2023-09-12T12:28:07;93985.22;;;33.27;34.68
27643;BME280;15053;48.618;10.024;2023-09-12T12:30:35;93982.69;;;33.45;34.63
27643;BME280;15053;48.618;10.024;2023-09-12T12:33:07;93989.56;;;33.59;34.45
27643;BME280;15053;48.618;10.024;2023-09-12T12:36:04;93986.47;;;33.69;34.71
27643;BME280;15053;48.618;10.024;2023-09-12T12:38:34;93985.44;;;33.54;32.83
27643;BME280;15053;48.618;10.024;2023-09-12T12:41:03;93979.19;;;33.23;33.12
27643;BME280;15053;48.618;10.024;2023-09-12T12:43:30;93974.78;;;33.16;33.66
27643;BME280;15053;48.618;10.024;2023-09-12T12:45:58;93962.16;;;33.13;33.32
27643;BME280;15053;48.618;10.024;2023-09-12T12:48:35;93963.94;;;33.29;33.07
27643;BME280;15053;48.618;10.024;2023-09-12T12:51:22;93963.25;;;33.38;32.81
27643;BME280;15053;48.618;10.024;2023-09-12T12:53:51;93966.50;;;33.33;34.29
27643;BME280;15053;48.618;10.024;2023-09-12T12:56:28;93959.44;;;33.48;33.77
27643;BME280;15053;48.618;10.024;2023-09-12T12:58:58;93964.09;;;33.69;33.12
27643;BME280;15053;48.618;10.024;2023-09-12T13:01:29;93959.81;;;33.80;32.41
27643;BME280;15053;48.618;10.024;2023-09-12T13:03:56;93956.97;;;33.84;33.29
27643;BME280;15053;48.618;10.024;2023-09-12T13:06:25;93949.97;;;33.96;34.09
27643;BME280;15053;48.618;10.024;2023-09-12T13:08:54;93960.75;;;34.17;33.56
27643;BME280;15053;48.618;10.024;2023-09-12T13:11:20;93952.41;;;34.33;33.06
27643;BME280;15053;48.618;10.024;2023-09-12T13:13:48;93948.69;;;34.49;32.04
27643;BME280;15053;48.618;10.024;2023-09-12T13:16:15;93951.91;;;34.57;33.01